sensor_id;sensor_type;location;lat;lon;timestamp;P1;durP1;ratioP1;P2;durP2;ratioP2
78960;SDS011;68362;45.970;12.646;2023-04-15T00:00:17;2.67;;;1.80;;
78960;SDS011;68362;45.970;12.646;2023-04-15T00:01:39;2.40;;;1.50;;
78960;SDS011;68362;45.970;12.646;2023-04-15T00:02:41;2.53;;;1.83;;
78960;SDS011;68362;45.970;12.646;2023-04-15T00:03:45;1.58;;;1.27;;
78960;SDS011;68362;45.970;12.646;2023-04-15T00:04:48;3.42;;;1.73;;
78960;SDS011;68362;45.970;12.646;2023-04-15T00:05:50;2.92;;;2.13;;
78960;SDS011;68362;45.970;12.646;2023-04-15T00:06:53;2.45;;;1.70;;
78960;SDS011;68362;45.970;12.646;2023-04-15T00:07:55;1.95;;;1.48;;
78960;SDS011;68362;45.970;12.646;2023-04-15T00:08:57;3.28;;;1.70;;
78960;SDS011;68362;45.970;12.646;2023-04-15T00:09:59;2.40;;;1.70;;
78960;SDS011;68362;45.970;12.646;2023-04-15T00:11:03;2.30;;;1.70;;
78960;SDS011;68362;45.970;12.646;2023-04-15T00:12:06;2.15;;;1.60;;
78960;SDS011;68362;45.970;12.646;2023-04-15T00:13:08;2.72;;;1.60;;
78960;SDS011;68362;45.970;12.646;2023-04-15T00:14:11;2.33;;;1.50;;
78960;SDS011;68362;45.970;12.646;2023-04-15T00:15:14;3.63;;;1.85;;
78960;SDS011;68362;45.970;12.646;2023-04-15T00:16:16;2.28;;;1.52;;
78960;SDS011;68362;45.970;12.646;2023-04-15T00:17:19;2.60;;;1.67;;
78960;SDS011;68362;45.970;12.646;2023-04-15T00:18:21;1.55;;;1.13;;
78960;SDS011;68362;45.970;12.646;2023-04-15T00:19:24;3.30;;;1.85;;
78960;SDS011;68362;45.970;12.646;2023-04-15T00:20:26;2.00;;;1.38;;
78960;SDS011;68362;45.970;12.646;2023-04-15T00:21:28;2.58;;;1.60;;
78960;SDS011;68362;45.970;12.646;2023-04-15T00:22:30;1.98;;;1.42;;
78960;SDS011;68362;45.970;12.646;2023-04-15T00:23:33;2.55;;;1.73;;
78960;SDS011;68362;45.970;12.646;2023-04-15T00:24:37;2.58;;;1.80;;
78960;SDS011;68362;45.970;12.646;2023-04-15T00:25:39;1.80;;;1.20;;
78960;SDS011;68362;45.970;12.646;2023-04-15T00:26:41;1.67;;;1.20;;
78960;SDS011;68362;45.970;12.646;2023-04-15T00:27:43;4.47;;;1.40;;
78960;SDS011;68362;45.970;12.646;2023-04-15T00:28:45;2.92;;;1.30;;
78960;SDS011;68362;45.970;12.646;2023-04-15T00:29:47;2.20;;;1.25;;
78960;SDS011;68362;45.970;12.646;2023-04-15T00:30:49;2.63;;;1.60;;
78960;SDS011;68362;45.970;12.646;2023-04-15T00:31:52;3.72;;;1.35;;
78960;SDS011;68362;45.970;12.646;2023-04-15T00:32:54;1.80;;;1.13;;
78960;SDS011;68362;45.970;12.646;2023-04-15T00:33:56;1.92;;;1.42;;
78960;SDS011;68362;45.970;12.646;2023-04-15T00:34:58;3.05;;;1.23;;
78960;SDS011;68362;45.970;12.646;2023-04-15T00:36:00;2.30;;;1.27;;
78960;SDS011;68362;45.970;12.646;2023-04-15T00:37:02;1.77;;;1.20;;
78960;SDS011;68362;45.970;12.646;2023-04-15T00:38:04;1.80;;;1.40;;
78960;SDS011;68362;45.970;12.646;2023-04-15T00:39:10;1.45;;;1.23;;
78960;SDS011;68362;45.970;12.646;2023-04-15T00:40:12;2.50;;;1.50;;
78960;SDS011;68362;45.970;12.646;2023-04-15T00:41:14;5.63;;;1.55;;
78960;SDS011;68362;45.970;12.646;2023-04-15T00:42:16;2.85;;;1.60;;
78960;SDS011;68362;45.970;12.646;2023-04-15T00:43:19;1.67;;;1.40;;
78960;SDS011;68362;45.970;12.646;2023-04-15T00:44:21;2.28;;;1.80;;
78960;SDS011;68362;45.970;12.646;2023-04-15T00:45:24;4.25;;;1.52;;
78960;SDS011;68362;45.970;12.646;2023-04-15T00:46:27;2.10;;;1.50;;
78960;SDS011;68362;45.970;12.646;2023-04-15T00:47:31;3.15;;;1.83;;
78960;SDS011;68362;45.970;12.646;2023-04-15T00:48:34;1.75;;;1.40;;
78960;SDS011;68362;45.970;12.646;2023-04-15T00:49:37;1.77;;;1.25;;
78960;SDS011;68362;45.970;12.646;2023-04-15T00:50:39;1.92;;;1.40;;
78960;SDS011;68362;45.970;12.646;2023-04-15T00:51:41;1.95;;;1.50;;
78960;SDS011;68362;45.970;12.646;2023-04-15T00:52:43;3.08;;;1.40;;
78960;SDS011;68362;45.970;12.646;2023-04-15T00:53:46;2.13;;;1.40;;
78960;SDS011;68362;45.970;12.646;2023-04-15T00:54:48;3.47;;;1.90;;
78960;SDS011;68362;45.970;12.646;2023-04-15T00:55:51;2.60;;;1.70;;
78960;SDS011;68362;45.970;12.646;2023-04-15T00:56:55;2.55;;;1.58;;
78960;SDS011;68362;45.970;12.646;2023-04-15T00:57:57;3.20;;;1.70;;
78960;SDS011;68362;45.970;12.646;2023-04-15T00:58:59;1.65;;;1.20;;
78960;SDS011;68362;45.970;12.646;2023-04-15T01:00:03;2.08;;;1.60;;
78960;SDS011;68362;45.970;12.646;2023-04-15T01:01:08;3.97;;;1.70;;
78960;SDS011;68362;45.970;12.646;2023-04-15T01:02:12;2.33;;;1.50;;
78960;SDS011;68362;45.970;12.646;2023-04-15T01:03:14;5.18;;;1.77;;
78960;SDS011;68362;45.970;12.646;2023-04-15T01:04:16;2.28;;;1.70;;
78960;SDS011;68362;45.970;12.646;2023-04-15T01:05:19;2.30;;;1.42;;
78960;SDS011;68362;45.970;12.646;2023-04-15T01:06:20;2.45;;;1.85;;
78960;SDS011;68362;45.970;12.646;2023-04-15T01:07:22;2.67;;;2.15;;
78960;SDS011;68362;45.970;12.646;2023-04-15T01:08:27;2.33;;;1.77;;
78960;SDS011;68362;45.970;12.646;2023-04-15T01:09:30;2.65;;;2.00;;
78960;SDS011;68362;45.970;12.646;2023-04-15T01:10:33;2.03;;;1.58;;
78960;SDS011;68362;45.970;12.646;2023-04-15T01:11:36;1.90;;;1.58;;
78960;SDS011;68362;45.970;12.646;2023-04-15T01:12:39;3.10;;;2.03;;
78960;SDS011;68362;45.970;12.646;2023-04-15T01:13:41;3.70;;;2.30;;
78960;SDS011;68362;45.970;12.646;2023-04-15T01:14:43;3.67;;;2.30;;
78960;SDS011;68362;45.970;12.646;2023-04-15T01:15:46;2.72;;;2.00;;
78960;SDS011;68362;45.970;12.646;2023-04-15T01:16:48;2.88;;;1.90;;
78960;SDS011;68362;45.970;12.646;2023-04-15T01:17:50;3.53;;;2.05;;
78960;SDS011;68362;45.970;12.646;2023-04-15T01:18:52;3.65;;;2.45;;
78960;SDS011;68362;45.970;12.646;2023-04-15T01:19:55;2.65;;;2.30;;
78960;SDS011;68362;45.970;12.646;2023-04-15T01:21:00;3.03;;;2.55;;
78960;SDS011;68362;45.970;12.646;2023-04-15T01:22:04;3.42;;;2.30;;
78960;SDS011;68362;45.970;12.646;2023-04-15T01:23:06;3.45;;;2.70;;
78960;SDS011;68362;45.970;12.646;2023-04-15T01:24:09;3.03;;;2.15;;
78960;SDS011;68362;45.970;12.646;2023-04-15T01:25:12;2.95;;;2.05;;
78960;SDS011;68362;45.970;12.646;2023-04-15T01:26:20;3.10;;;2.33;;
78960;SDS011;68362;45.970;12.646;2023-04-15T01:27:22;3.10;;;2.47;;
78960;SDS011;68362;45.970;12.646;2023-04-15T01:28:25;2.78;;;2.13;;
78960;SDS011;68362;45.970;12.646;2023-04-15T01:29:28;3.67;;;2.45;;
78960;SDS011;68362;45.970;12.646;2023-04-15T01:30:33;3.70;;;2.53;;
78960;SDS011;68362;45.970;12.646;2023-04-15T01:31:35;4.43;;;2.78;;
78960;SDS011;68362;45.970;12.646;2023-04-15T01:32:38;4.13;;;3.13;;
78960;SDS011;68362;45.970;12.646;2023-04-15T01:33:40;3.85;;;2.72;;
78960;SDS011;68362;45.970;12.646;2023-04-15T01:34:44;3.17;;;2.50;;
78960;SDS011;68362;45.970;12.646;2023-04-15T01:35:46;4.20;;;2.88;;
78960;SDS011;68362;45.970;12.646;2023-04-15T01:36:48;11.85;;;4.00;;
78960;SDS011;68362;45.970;12.646;2023-04-15T01:37:50;3.30;;;2.22;;
78960;SDS011;68362;45.970;12.646;2023-04-15T01:38:53;3.25;;;2.55;;
78960;SDS011;68362;45.970;12.646;2023-04-15T01:39:56;4.55;;;3.17;;
78960;SDS011;68362;45.970;12.646;2023-04-15T01:40:58;3.85;;;2.78;;
78960;SDS011;68362;45.970;12.646;2023-04-15T01:42:00;3.58;;;3.00;;
78960;SDS011;68362;45.970;12.646;2023-04-15T01:43:03;3.15;;;2.72;;
78960;SDS011;68362;45.970;12.646;2023-04-15T01:44:05;5.13;;;2.90;;
78960;SDS011;68362;45.970;12.646;2023-04-15T01:46:10;3.42;;;2.65;;
78960;SDS011;68362;45.970;12.646;2023-04-15T01:47:12;5.72;;;3.30;;
78960;SDS011;68362;45.970;12.646;2023-04-15T01:48:15;4.85;;;2.97;;
78960;SDS011;68362;45.970;12.646;2023-04-15T01:49:17;4.38;;;3.05;;
78960;SDS011;68362;45.970;12.646;2023-04-15T01:50:19;3.53;;;2.80;;
78960;SDS011;68362;45.970;12.646;2023-04-15T01:51:22;4.07;;;2.88;;
78960;SDS011;68362;45.970;12.646;2023-04-15T01:52:24;4.38;;;3.10;;
78960;SDS011;68362;45.970;12.646;2023-04-15T01:53:26;9.18;;;4.15;;
78960;SDS011;68362;45.970;12.646;2023-04-15T01:54:29;4.40;;;3.33;;
78960;SDS011;68362;45.970;12.646;2023-04-15T01:55:31;6.22;;;3.60;;
78960;SDS011;68362;45.970;12.646;2023-04-15T01:56:33;5.78;;;4.00;;
78960;SDS011;68362;45.970;12.646;2023-04-15T01:57:35;5.78;;;4.00;;
78960;SDS011;68362;45.970;12.646;2023-04-15T01:58:37;6.15;;;4.18;;
78960;SDS011;68362;45.970;12.646;2023-04-15T01:59:41;6.30;;;4.40;;
78960;SDS011;68362;45.970;12.646;2023-04-15T02:00:43;5.35;;;4.43;;
78960;SDS011;68362;45.970;12.646;2023-04-15T02:01:45;5.18;;;4.13;;
78960;SDS011;68362;45.970;12.646;2023-04-15T02:02:47;4.72;;;3.97;;
78960;SDS011;68362;45.970;12.646;2023-04-15T02:03:50;6.28;;;4.85;;
78960;SDS011;68362;45.970;12.646;2023-04-15T02:04:52;8.73;;;4.75;;
78960;SDS011;68362;45.970;12.646;2023-04-15T02:05:55;6.10;;;4.53;;
78960;SDS011;68362;45.970;12.646;2023-04-15T02:06:57;6.68;;;5.30;;
78960;SDS011;68362;45.970;12.646;2023-04-15T02:07:59;6.35;;;5.13;;
78960;SDS011;68362;45.970;12.646;2023-04-15T02:09:01;6.97;;;5.20;;
78960;SDS011;68362;45.970;12.646;2023-04-15T02:10:04;10.38;;;5.60;;
78960;SDS011;68362;45.970;12.646;2023-04-15T02:11:07;6.65;;;5.10;;
78960;SDS011;68362;45.970;12.646;2023-04-15T02:12:09;9.73;;;5.70;;
78960;SDS011;68362;45.970;12.646;2023-04-15T02:13:11;7.45;;;5.55;;
78960;SDS011;68362;45.970;12.646;2023-04-15T02:14:13;6.50;;;5.25;;
78960;SDS011;68362;45.970;12.646;2023-04-15T02:15:15;7.07;;;5.75;;
78960;SDS011;68362;45.970;12.646;2023-04-15T02:16:17;8.30;;;5.50;;
78960;SDS011;68362;45.970;12.646;2023-04-15T02:17:21;6.50;;;4.93;;
78960;SDS011;68362;45.970;12.646;2023-04-15T02:18:23;7.85;;;5.38;;
78960;SDS011;68362;45.970;12.646;2023-04-15T02:19:25;9.75;;;6.47;;
78960;SDS011;68362;45.970;12.646;2023-04-15T02:20:27;8.98;;;5.90;;
78960;SDS011;68362;45.970;12.646;2023-04-15T02:21:30;6.90;;;5.55;;
78960;SDS011;68362;45.970;12.646;2023-04-15T02:22:33;7.88;;;5.57;;
78960;SDS011;68362;45.970;12.646;2023-04-15T02:23:35;8.75;;;5.75;;
78960;SDS011;68362;45.970;12.646;2023-04-15T02:24:37;8.05;;;5.88;;
78960;SDS011;68362;45.970;12.646;2023-04-15T02:25:39;7.05;;;5.60;;
78960;SDS011;68362;45.970;12.646;2023-04-15T02:26:42;7.00;;;6.05;;
78960;SDS011;68362;45.970;12.646;2023-04-15T02:27:44;8.65;;;5.75;;
78960;SDS011;68362;45.970;12.646;2023-04-15T02:28:46;7.60;;;5.90;;
78960;SDS011;68362;45.970;12.646;2023-04-15T02:29:48;9.18;;;7.07;;
78960;SDS011;68362;45.970;12.646;2023-04-15T02:30:51;6.88;;;6.18;;
78960;SDS011;68362;45.970;12.646;2023-04-15T02:31:55;8.40;;;6.80;;
78960;SDS011;68362;45.970;12.646;2023-04-15T02:32:57;9.82;;;6.50;;
78960;SDS011;68362;45.970;12.646;2023-04-15T02:35:05;7.18;;;6.13;;
78960;SDS011;68362;45.970;12.646;2023-04-15T02:36:09;9.73;;;6.95;;
78960;SDS011;68362;45.970;12.646;2023-04-15T02:37:13;8.77;;;6.38;;
78960;SDS011;68362;45.970;12.646;2023-04-15T02:38:15;8.68;;;6.78;;
78960;SDS011;68362;45.970;12.646;2023-04-15T02:39:18;11.40;;;7.63;;
78960;SDS011;68362;45.970;12.646;2023-04-15T02:40:20;10.00;;;7.05;;
78960;SDS011;68362;45.970;12.646;2023-04-15T02:41:22;9.88;;;7.55;;
78960;SDS011;68362;45.970;12.646;2023-04-15T02:42:28;9.65;;;7.63;;
78960;SDS011;68362;45.970;12.646;2023-04-15T02:43:30;10.40;;;7.43;;
78960;SDS011;68362;45.970;12.646;2023-04-15T02:44:32;9.98;;;8.80;;
78960;SDS011;68362;45.970;12.646;2023-04-15T02:45:37;11.07;;;8.35;;
78960;SDS011;68362;45.970;12.646;2023-04-15T02:46:39;9.73;;;7.90;;
78960;SDS011;68362;45.970;12.646;2023-04-15T02:47:41;8.55;;;7.20;;
78960;SDS011;68362;45.970;12.646;2023-04-15T02:48:44;10.45;;;7.70;;
78960;SDS011;68362;45.970;12.646;2023-04-15T02:49:46;11.73;;;8.05;;
78960;SDS011;68362;45.970;12.646;2023-04-15T02:50:48;10.65;;;7.85;;
78960;SDS011;68362;45.970;12.646;2023-04-15T02:51:50;10.25;;;8.30;;
78960;SDS011;68362;45.970;12.646;2023-04-15T02:52:52;10.63;;;7.85;;
78960;SDS011;68362;45.970;12.646;2023-04-15T02:53:55;10.23;;;7.53;;
78960;SDS011;68362;45.970;12.646;2023-04-15T02:54:57;11.75;;;8.15;;
78960;SDS011;68362;45.970;12.646;2023-04-15T02:56:01;11.75;;;7.57;;
78960;SDS011;68362;45.970;12.646;2023-04-15T02:57:03;9.75;;;8.23;;
78960;SDS011;68362;45.970;12.646;2023-04-15T02:58:07;11.38;;;8.60;;
78960;SDS011;68362;45.970;12.646;2023-04-15T02:59:10;9.82;;;7.80;;
78960;SDS011;68362;45.970;12.646;2023-04-15T03:00:13;12.40;;;8.65;;
78960;SDS011;68362;45.970;12.646;2023-04-15T03:01:15;12.30;;;8.57;;
78960;SDS011;68362;45.970;12.646;2023-04-15T03:02:17;13.15;;;9.65;;
78960;SDS011;68362;45.970;12.646;2023-04-15T03:03:19;12.90;;;10.15;;
78960;SDS011;68362;45.970;12.646;2023-04-15T03:04:21;10.70;;;8.52;;
78960;SDS011;68362;45.970;12.646;2023-04-15T03:05:23;12.23;;;8.95;;
78960;SDS011;68362;45.970;12.646;2023-04-15T03:06:26;10.95;;;8.38;;
78960;SDS011;68362;45.970;12.646;2023-04-15T03:07:28;11.85;;;9.70;;
78960;SDS011;68362;45.970;12.646;2023-04-15T03:08:30;12.18;;;9.35;;
78960;SDS011;68362;45.970;12.646;2023-04-15T03:09:33;12.80;;;9.65;;
78960;SDS011;68362;45.970;12.646;2023-04-15T03:10:35;13.60;;;10.55;;
78960;SDS011;68362;45.970;12.646;2023-04-15T03:11:37;11.20;;;8.98;;
78960;SDS011;68362;45.970;12.646;2023-04-15T03:12:41;12.98;;;9.20;;
78960;SDS011;68362;45.970;12.646;2023-04-15T03:13:43;14.43;;;8.70;;
78960;SDS011;68362;45.970;12.646;2023-04-15T03:14:45;14.23;;;9.40;;
78960;SDS011;68362;45.970;12.646;2023-04-15T03:15:47;10.93;;;8.48;;
78960;SDS011;68362;45.970;12.646;2023-04-15T03:16:49;12.10;;;8.68;;
78960;SDS011;68362;45.970;12.646;2023-04-15T03:17:52;12.52;;;8.63;;
78960;SDS011;68362;45.970;12.646;2023-04-15T03:18:55;10.82;;;8.32;;
78960;SDS011;68362;45.970;12.646;2023-04-15T03:19:57;11.57;;;9.00;;
78960;SDS011;68362;45.970;12.646;2023-04-15T03:20:59;10.57;;;8.57;;
78960;SDS011;68362;45.970;12.646;2023-04-15T03:22:01;11.45;;;8.40;;
78960;SDS011;68362;45.970;12.646;2023-04-15T03:23:03;12.50;;;8.68;;
78960;SDS011;68362;45.970;12.646;2023-04-15T03:24:05;12.35;;;10.05;;
78960;SDS011;68362;45.970;12.646;2023-04-15T03:25:07;12.30;;;8.68;;
78960;SDS011;68362;45.970;12.646;2023-04-15T03:26:09;12.57;;;9.68;;
78960;SDS011;68362;45.970;12.646;2023-04-15T03:27:25;12.15;;;8.30;;
78960;SDS011;68362;45.970;12.646;2023-04-15T03:28:27;9.15;;;7.78;;
78960;SDS011;68362;45.970;12.646;2023-04-15T03:29:30;10.52;;;7.90;;
78960;SDS011;68362;45.970;12.646;2023-04-15T03:30:32;13.23;;;8.65;;
78960;SDS011;68362;45.970;12.646;2023-04-15T03:31:34;12.07;;;8.38;;
78960;SDS011;68362;45.970;12.646;2023-04-15T03:32:37;10.95;;;8.27;;
78960;SDS011;68362;45.970;12.646;2023-04-15T03:34:41;11.45;;;8.45;;
78960;SDS011;68362;45.970;12.646;2023-04-15T03:35:44;13.05;;;7.18;;
78960;SDS011;68362;45.970;12.646;2023-04-15T03:36:46;10.55;;;7.65;;
78960;SDS011;68362;45.970;12.646;2023-04-15T03:37:47;10.35;;;8.07;;
78960;SDS011;68362;45.970;12.646;2023-04-15T03:38:49;10.35;;;7.95;;
78960;SDS011;68362;45.970;12.646;2023-04-15T03:39:52;11.70;;;7.22;;
78960;SDS011;68362;45.970;12.646;2023-04-15T03:40:54;9.65;;;7.88;;
78960;SDS011;68362;45.970;12.646;2023-04-15T03:41:56;10.70;;;7.47;;
78960;SDS011;68362;45.970;12.646;2023-04-15T03:42:58;11.63;;;8.38;;
78960;SDS011;68362;45.970;12.646;2023-04-15T03:44:00;12.35;;;7.65;;
78960;SDS011;68362;45.970;12.646;2023-04-15T03:45:03;10.98;;;8.23;;
78960;SDS011;68362;45.970;12.646;2023-04-15T03:46:05;12.10;;;8.50;;
78960;SDS011;68362;45.970;12.646;2023-04-15T03:47:07;11.20;;;8.07;;
78960;SDS011;68362;45.970;12.646;2023-04-15T03:48:10;12.27;;;8.18;;
78960;SDS011;68362;45.970;12.646;2023-04-15T03:49:18;10.75;;;7.70;;
78960;SDS011;68362;45.970;12.646;2023-04-15T03:50:21;11.02;;;8.23;;
78960;SDS011;68362;45.970;12.646;2023-04-15T03:51:23;12.50;;;8.43;;
78960;SDS011;68362;45.970;12.646;2023-04-15T03:52:25;12.15;;;8.20;;
78960;SDS011;68362;45.970;12.646;2023-04-15T03:53:27;11.63;;;8.20;;
78960;SDS011;68362;45.970;12.646;2023-04-15T03:54:29;10.32;;;7.18;;
78960;SDS011;68362;45.970;12.646;2023-04-15T03:55:31;9.88;;;6.85;;
78960;SDS011;68362;45.970;12.646;2023-04-15T03:56:33;10.68;;;7.72;;
78960;SDS011;68362;45.970;12.646;2023-04-15T03:57:36;9.95;;;7.47;;
78960;SDS011;68362;45.970;12.646;2023-04-15T03:58:39;9.23;;;7.28;;
78960;SDS011;68362;45.970;12.646;2023-04-15T03:59:42;9.95;;;7.25;;
78960;SDS011;68362;45.970;12.646;2023-04-15T04:01:46;8.43;;;6.43;;
78960;SDS011;68362;45.970;12.646;2023-04-15T04:02:48;11.80;;;7.07;;
78960;SDS011;68362;45.970;12.646;2023-04-15T04:03:51;10.98;;;7.47;;
78960;SDS011;68362;45.970;12.646;2023-04-15T04:04:53;7.65;;;6.50;;
78960;SDS011;68362;45.970;12.646;2023-04-15T04:05:55;10.20;;;7.20;;
78960;SDS011;68362;45.970;12.646;2023-04-15T04:06:57;11.35;;;7.72;;
78960;SDS011;68362;45.970;12.646;2023-04-15T04:07:59;13.55;;;7.63;;
78960;SDS011;68362;45.970;12.646;2023-04-15T04:09:01;9.63;;;7.75;;
78960;SDS011;68362;45.970;12.646;2023-04-15T04:10:04;9.85;;;7.63;;
78960;SDS011;68362;45.970;12.646;2023-04-15T04:11:06;9.55;;;7.30;;
78960;SDS011;68362;45.970;12.646;2023-04-15T04:12:08;10.07;;;7.43;;
78960;SDS011;68362;45.970;12.646;2023-04-15T04:13:10;8.98;;;7.40;;
78960;SDS011;68362;45.970;12.646;2023-04-15T04:14:12;20.27;;;7.85;;
78960;SDS011;68362;45.970;12.646;2023-04-15T04:15:14;13.70;;;7.57;;
78960;SDS011;68362;45.970;12.646;2023-04-15T04:16:16;11.48;;;6.70;;
78960;SDS011;68362;45.970;12.646;2023-04-15T04:17:19;7.85;;;6.55;;
78960;SDS011;68362;45.970;12.646;2023-04-15T04:18:21;7.43;;;6.47;;
78960;SDS011;68362;45.970;12.646;2023-04-15T04:19:23;9.88;;;7.25;;
78960;SDS011;68362;45.970;12.646;2023-04-15T04:20:26;8.30;;;6.50;;
78960;SDS011;68362;45.970;12.646;2023-04-15T04:21:28;10.10;;;6.93;;
78960;SDS011;68362;45.970;12.646;2023-04-15T04:22:30;11.02;;;6.63;;
78960;SDS011;68362;45.970;12.646;2023-04-15T04:23:32;9.10;;;6.82;;
78960;SDS011;68362;45.970;12.646;2023-04-15T04:24:34;8.55;;;6.55;;
78960;SDS011;68362;45.970;12.646;2023-04-15T04:25:36;10.57;;;6.80;;
78960;SDS011;68362;45.970;12.646;2023-04-15T04:26:38;9.73;;;6.75;;
78960;SDS011;68362;45.970;12.646;2023-04-15T04:27:40;10.82;;;6.57;;
78960;SDS011;68362;45.970;12.646;2023-04-15T04:28:42;9.57;;;7.60;;
78960;SDS011;68362;45.970;12.646;2023-04-15T04:29:44;11.63;;;6.85;;
78960;SDS011;68362;45.970;12.646;2023-04-15T04:30:48;9.43;;;6.97;;
78960;SDS011;68362;45.970;12.646;2023-04-15T04:31:50;8.18;;;6.55;;
78960;SDS011;68362;45.970;12.646;2023-04-15T04:32:52;8.02;;;6.20;;
78960;SDS011;68362;45.970;12.646;2023-04-15T04:33:54;9.18;;;7.13;;
78960;SDS011;68362;45.970;12.646;2023-04-15T04:34:56;8.60;;;6.75;;
78960;SDS011;68362;45.970;12.646;2023-04-15T04:35:58;9.55;;;6.97;;
78960;SDS011;68362;45.970;12.646;2023-04-15T04:37:00;10.73;;;6.50;;
78960;SDS011;68362;45.970;12.646;2023-04-15T04:38:03;10.43;;;7.20;;
78960;SDS011;68362;45.970;12.646;2023-04-15T04:39:05;9.30;;;6.60;;
78960;SDS011;68362;45.970;12.646;2023-04-15T04:40:08;8.25;;;6.03;;
78960;SDS011;68362;45.970;12.646;2023-04-15T04:41:10;8.55;;;6.88;;
78960;SDS011;68362;45.970;12.646;2023-04-15T04:42:12;8.85;;;6.28;;
78960;SDS011;68362;45.970;12.646;2023-04-15T04:43:14;9.02;;;6.20;;
78960;SDS011;68362;45.970;12.646;2023-04-15T04:44:16;8.75;;;6.43;;
78960;SDS011;68362;45.970;12.646;2023-04-15T04:45:19;8.32;;;6.30;;
78960;SDS011;68362;45.970;12.646;2023-04-15T04:46:21;12.77;;;6.97;;
78960;SDS011;68362;45.970;12.646;2023-04-15T04:48:26;11.00;;;5.53;;
78960;SDS011;68362;45.970;12.646;2023-04-15T04:49:28;8.25;;;6.32;;
78960;SDS011;68362;45.970;12.646;2023-04-15T04:50:30;13.43;;;6.93;;
78960;SDS011;68362;45.970;12.646;2023-04-15T04:51:32;10.85;;;6.97;;
78960;SDS011;68362;45.970;12.646;2023-04-15T04:52:34;12.70;;;7.07;;
78960;SDS011;68362;45.970;12.646;2023-04-15T04:53:36;9.45;;;6.00;;
78960;SDS011;68362;45.970;12.646;2023-04-15T04:54:39;9.73;;;6.57;;
78960;SDS011;68362;45.970;12.646;2023-04-15T04:55:41;10.25;;;7.10;;
78960;SDS011;68362;45.970;12.646;2023-04-15T04:56:43;8.80;;;6.07;;
78960;SDS011;68362;45.970;12.646;2023-04-15T04:57:45;9.18;;;6.78;;
78960;SDS011;68362;45.970;12.646;2023-04-15T04:58:48;9.00;;;6.35;;
78960;SDS011;68362;45.970;12.646;2023-04-15T04:59:50;9.30;;;6.82;;
78960;SDS011;68362;45.970;12.646;2023-04-15T05:00:52;9.93;;;6.60;;
78960;SDS011;68362;45.970;12.646;2023-04-15T05:01:54;10.07;;;7.80;;
78960;SDS011;68362;45.970;12.646;2023-04-15T05:02:56;9.90;;;7.18;;
78960;SDS011;68362;45.970;12.646;2023-04-15T05:03:59;9.43;;;6.40;;
78960;SDS011;68362;45.970;12.646;2023-04-15T05:05:02;9.98;;;6.95;;
78960;SDS011;68362;45.970;12.646;2023-04-15T05:06:04;11.25;;;6.13;;
78960;SDS011;68362;45.970;12.646;2023-04-15T05:07:09;10.18;;;6.43;;
78960;SDS011;68362;45.970;12.646;2023-04-15T05:08:11;9.23;;;6.25;;
78960;SDS011;68362;45.970;12.646;2023-04-15T05:09:13;10.38;;;7.32;;
78960;SDS011;68362;45.970;12.646;2023-04-15T05:10:15;11.98;;;6.63;;
78960;SDS011;68362;45.970;12.646;2023-04-15T05:11:19;9.88;;;7.07;;
78960;SDS011;68362;45.970;12.646;2023-04-15T05:12:21;10.90;;;6.60;;
78960;SDS011;68362;45.970;12.646;2023-04-15T05:13:23;11.68;;;6.93;;
78960;SDS011;68362;45.970;12.646;2023-04-15T05:14:25;9.40;;;6.47;;
78960;SDS011;68362;45.970;12.646;2023-04-15T05:15:28;8.02;;;5.88;;
78960;SDS011;68362;45.970;12.646;2023-04-15T05:16:30;8.38;;;5.43;;
78960;SDS011;68362;45.970;12.646;2023-04-15T05:17:32;8.45;;;6.15;;
78960;SDS011;68362;45.970;12.646;2023-04-15T05:18:35;11.60;;;6.55;;
78960;SDS011;68362;45.970;12.646;2023-04-15T05:20:40;7.93;;;5.97;;
78960;SDS011;68362;45.970;12.646;2023-04-15T05:21:42;7.57;;;5.68;;
78960;SDS011;68362;45.970;12.646;2023-04-15T05:22:44;8.15;;;6.40;;
78960;SDS011;68362;45.970;12.646;2023-04-15T05:23:46;8.07;;;5.72;;
78960;SDS011;68362;45.970;12.646;2023-04-15T05:24:48;10.18;;;5.78;;
78960;SDS011;68362;45.970;12.646;2023-04-15T05:25:50;9.20;;;6.15;;
78960;SDS011;68362;45.970;12.646;2023-04-15T05:26:52;8.90;;;6.40;;
78960;SDS011;68362;45.970;12.646;2023-04-15T05:27:55;8.10;;;5.97;;
78960;SDS011;68362;45.970;12.646;2023-04-15T05:28:56;8.70;;;6.88;;
78960;SDS011;68362;45.970;12.646;2023-04-15T05:29:59;8.55;;;6.32;;
78960;SDS011;68362;45.970;12.646;2023-04-15T05:31:01;10.73;;;7.20;;
78960;SDS011;68362;45.970;12.646;2023-04-15T05:32:03;8.48;;;6.13;;
78960;SDS011;68362;45.970;12.646;2023-04-15T05:33:06;9.00;;;6.53;;
78960;SDS011;68362;45.970;12.646;2023-04-15T05:34:08;9.02;;;5.95;;
78960;SDS011;68362;45.970;12.646;2023-04-15T05:35:10;9.13;;;6.03;;
78960;SDS011;68362;45.970;12.646;2023-04-15T05:36:13;8.70;;;6.28;;
78960;SDS011;68362;45.970;12.646;2023-04-15T05:37:15;9.82;;;6.10;;
78960;SDS011;68362;45.970;12.646;2023-04-15T05:38:17;8.43;;;6.18;;
78960;SDS011;68362;45.970;12.646;2023-04-15T05:39:19;9.60;;;5.88;;
78960;SDS011;68362;45.970;12.646;2023-04-15T05:40:21;8.50;;;5.85;;
78960;SDS011;68362;45.970;12.646;2023-04-15T05:41:24;12.05;;;5.82;;
78960;SDS011;68362;45.970;12.646;2023-04-15T05:42:26;9.38;;;6.20;;
78960;SDS011;68362;45.970;12.646;2023-04-15T05:43:28;8.23;;;5.55;;
78960;SDS011;68362;45.970;12.646;2023-04-15T05:44:30;8.25;;;5.72;;
78960;SDS011;68362;45.970;12.646;2023-04-15T05:45:32;8.98;;;5.80;;
78960;SDS011;68362;45.970;12.646;2023-04-15T05:46:34;8.20;;;5.95;;
78960;SDS011;68362;45.970;12.646;2023-04-15T05:47:37;9.70;;;5.70;;
78960;SDS011;68362;45.970;12.646;2023-04-15T05:48:39;7.53;;;5.63;;
78960;SDS011;68362;45.970;12.646;2023-04-15T05:49:41;7.38;;;5.63;;
78960;SDS011;68362;45.970;12.646;2023-04-15T05:50:43;7.07;;;5.28;;
78960;SDS011;68362;45.970;12.646;2023-04-15T05:51:46;6.38;;;5.28;;
78960;SDS011;68362;45.970;12.646;2023-04-15T05:52:48;6.63;;;4.32;;
78960;SDS011;68362;45.970;12.646;2023-04-15T05:53:50;6.85;;;4.60;;
78960;SDS011;68362;45.970;12.646;2023-04-15T05:54:52;8.82;;;6.05;;
78960;SDS011;68362;45.970;12.646;2023-04-15T05:55:54;10.20;;;5.55;;
78960;SDS011;68362;45.970;12.646;2023-04-15T05:56:57;8.18;;;5.60;;
78960;SDS011;68362;45.970;12.646;2023-04-15T05:57:59;6.50;;;4.82;;
78960;SDS011;68362;45.970;12.646;2023-04-15T05:59:01;8.05;;;4.85;;
78960;SDS011;68362;45.970;12.646;2023-04-15T06:00:04;5.78;;;3.97;;
78960;SDS011;68362;45.970;12.646;2023-04-15T06:02:08;8.32;;;4.65;;
78960;SDS011;68362;45.970;12.646;2023-04-15T06:03:11;7.80;;;4.43;;
78960;SDS011;68362;45.970;12.646;2023-04-15T06:04:13;8.38;;;5.57;;
78960;SDS011;68362;45.970;12.646;2023-04-15T06:05:16;6.13;;;4.22;;
78960;SDS011;68362;45.970;12.646;2023-04-15T06:06:18;8.10;;;4.70;;
78960;SDS011;68362;45.970;12.646;2023-04-15T06:07:21;6.30;;;4.32;;
78960;SDS011;68362;45.970;12.646;2023-04-15T06:08:23;8.43;;;4.13;;
78960;SDS011;68362;45.970;12.646;2023-04-15T06:09:25;6.10;;;3.75;;
78960;SDS011;68362;45.970;12.646;2023-04-15T06:10:27;5.47;;;3.75;;
78960;SDS011;68362;45.970;12.646;2023-04-15T06:11:29;8.57;;;4.45;;
78960;SDS011;68362;45.970;12.646;2023-04-15T06:12:31;6.50;;;4.45;;
78960;SDS011;68362;45.970;12.646;2023-04-15T06:13:34;6.65;;;3.50;;
78960;SDS011;68362;45.970;12.646;2023-04-15T06:14:39;5.78;;;4.22;;
78960;SDS011;68362;45.970;12.646;2023-04-15T06:15:41;4.72;;;3.78;;
78960;SDS011;68362;45.970;12.646;2023-04-15T06:16:43;6.97;;;3.10;;